createdAt,value
2018-08-07T00:00:54.035Z,54.98
2018-08-07T00:01:54.056Z,54.49
2018-08-07T00:02:54.074Z,54.59
2018-08-07T00:03:54.094Z,54.49
2018-08-07T00:04:54.120Z,55.17
2018-08-07T00:05:54.138Z,54.88
2018-08-07T00:06:54.161Z,55.17
2018-08-07T00:07:54.171Z,55.27
2018-08-07T00:08:54.245Z,54.47
2018-08-07T00:09:54.211Z,55.17
2018-08-07T00:10:54.224Z,54.37
2018-08-07T00:11:54.246Z,55.05
2018-08-07T00:12:54.264Z,55.53
2018-08-07T00:13:54.283Z,54.75
2018-08-07T00:14:54.302Z,55.24
2018-08-07T00:15:54.323Z,55.24
2018-08-07T00:16:54.342Z,55.34
2018-08-07T00:17:54.363Z,54.27
2018-08-07T00:18:54.382Z,55.05
2018-08-07T00:19:54.400Z,55.82
2018-08-07T00:20:54.424Z,55.63
2018-08-07T00:21:54.439Z,54.27
2018-08-07T00:22:54.464Z,54.85
2018-08-07T00:23:54.477Z,55.43
2018-08-07T00:24:54.502Z,56.50
2018-08-07T00:25:54.516Z,56.30
2018-08-07T00:26:54.538Z,55.05
2018-08-07T00:27:54.563Z,55.34
2018-08-07T00:28:54.652Z,56.11
2018-08-07T00:29:54.664Z,56.11
2018-08-07T00:30:54.613Z,55.34
2018-08-07T00:31:54.632Z,55.34
2018-08-07T00:32:54.729Z,55.43
2018-08-07T00:33:54.724Z,56.70
2018-08-07T00:34:54.690Z,55.53
2018-08-07T00:35:54.713Z,56.02
2018-08-07T00:36:54.729Z,56.11
2018-08-07T00:38:54.765Z,56.40
2018-08-07T00:39:55.009Z,55.63
2018-08-07T00:40:54.809Z,56.70
2018-08-07T00:41:54.825Z,55.24
2018-08-07T00:42:54.846Z,56.30
2018-08-07T00:43:54.869Z,56.98
2018-08-07T00:44:54.885Z,56.60
2018-08-07T00:45:54.901Z,56.40
2018-08-07T00:46:54.933Z,56.79
2018-08-07T00:47:54.940Z,56.21
2018-08-07T00:48:54.960Z,56.60
2018-08-07T00:49:54.981Z,57.08
2018-08-07T00:50:54.998Z,55.82
2018-08-07T00:51:55.017Z,55.73
2018-08-07T00:52:55.038Z,57.28
2018-08-07T00:53:55.057Z,56.21
2018-08-07T00:54:55.075Z,56.76
2018-08-07T00:55:55.095Z,55.89
2018-08-07T00:56:55.114Z,57.63
2018-08-07T00:57:55.134Z,56.95
2018-08-07T00:58:55.151Z,57.24
2018-08-07T00:59:55.170Z,56.95
2018-08-07T01:00:55.190Z,56.95
2018-08-07T01:01:55.209Z,57.73
2018-08-07T01:02:55.231Z,57.24
2018-08-07T01:03:55.253Z,56.57
2018-08-07T01:04:55.267Z,56.76
2018-08-07T01:05:55.488Z,57.24
2018-08-07T01:12:56.327Z,56.86
2018-08-07T01:16:29.127Z,57.34
2018-08-07T01:17:29.145Z,56.37
2018-08-07T01:18:29.167Z,56.18
2018-08-07T01:19:29.188Z,57.63
2018-08-07T01:20:29.204Z,57.51
2018-08-07T01:21:29.223Z,56.86
2018-08-07T01:22:29.245Z,58.67
2018-08-07T01:23:29.261Z,57.79
2018-08-07T01:24:29.279Z,57.99
2018-08-07T01:25:29.298Z,57.63
2018-08-07T01:26:29.320Z,56.73
2018-08-07T01:27:29.340Z,58.76
2018-08-07T01:28:29.369Z,57.03
2018-08-07T01:29:29.375Z,57.60
2018-08-07T01:30:29.394Z,58.76
2018-08-07T01:31:29.416Z,58.02
2018-08-07T01:32:29.432Z,58.70
2018-08-07T01:33:29.451Z,56.93
2018-08-07T01:34:29.468Z,56.86
2018-08-07T01:35:29.495Z,57.21
2018-08-07T01:36:29.509Z,58.09
2018-08-07T01:37:29.535Z,57.70
2018-08-07T01:38:29.547Z,57.79
2018-08-07T01:39:29.564Z,57.70
2018-08-07T01:40:29.583Z,57.51
2018-08-07T01:41:29.601Z,57.60
2018-08-07T01:42:29.619Z,58.18
2018-08-07T01:43:29.642Z,58.09
2018-08-07T01:44:29.657Z,58.67
2018-08-07T01:45:29.678Z,59.15
2018-08-07T01:46:29.698Z,58.67
2018-08-07T01:47:29.716Z,59.15
2018-08-07T01:48:29.736Z,59.53
2018-08-07T01:49:29.781Z,58.76
2018-08-07T01:50:29.773Z,59.63
2018-08-07T01:51:29.792Z,58.95
2018-08-07T01:52:29.812Z,59.05
2018-08-07T01:53:29.829Z,60.02
2018-08-07T01:54:29.850Z,59.63
2018-08-07T01:55:29.868Z,59.44
2018-08-07T01:56:29.886Z,59.44
2018-08-07T01:57:29.924Z,60.50
2018-08-07T01:58:29.944Z,60.50
2018-08-07T01:59:29.942Z,60.18
2018-08-07T02:00:29.961Z,60.69
2018-08-07T02:01:29.980Z,60.47
2018-08-07T02:02:30.010Z,59.34
2018-08-07T02:03:30.017Z,58.73
2018-08-07T02:04:30.037Z,58.83
2018-08-07T02:05:30.055Z,59.89
2018-08-07T02:06:30.075Z,59.53
2018-08-07T02:07:30.093Z,59.22
2018-08-07T02:08:30.110Z,60.09
2018-08-07T02:09:30.131Z,59.41
2018-08-07T02:10:30.149Z,59.31
2018-08-07T02:11:30.180Z,58.93
2018-08-07T02:12:30.187Z,59.99
2018-08-07T02:13:30.206Z,59.51
2018-08-07T02:14:30.226Z,59.80
2018-08-07T02:15:30.246Z,59.99
2018-08-07T02:16:30.313Z,60.38
2018-08-07T02:17:30.605Z,59.89
2018-08-07T02:18:30.300Z,59.89
2018-08-07T02:19:30.321Z,60.18
2018-08-07T02:20:30.343Z,58.25
2018-08-07T02:21:30.358Z,58.35
2018-08-07T02:22:30.382Z,56.80
2018-08-07T02:23:30.395Z,56.80
2018-08-07T02:24:30.416Z,56.61
2018-08-07T02:25:30.434Z,56.99
2018-08-07T02:26:30.452Z,56.99
2018-08-07T02:27:30.469Z,56.32
2018-08-07T02:28:30.490Z,56.61
2018-08-07T02:29:30.508Z,56.80
2018-08-07T02:30:30.531Z,56.32
2018-08-07T02:31:30.543Z,54.87
2018-08-07T02:32:30.567Z,55.16
2018-08-07T02:33:30.653Z,54.68
2018-08-07T02:34:30.603Z,54.77
2018-08-07T02:35:30.632Z,54.29
2018-08-07T02:36:30.639Z,54.87
2018-08-07T02:37:30.658Z,55.07
2018-08-07T02:38:30.673Z,55.07
2018-08-07T02:39:30.700Z,55.07
2018-08-07T02:40:30.712Z,54.77
2018-08-07T02:41:30.731Z,55.42
2018-08-07T02:42:30.750Z,56.00
2018-08-07T02:43:30.771Z,55.81
2018-08-07T02:44:30.791Z,56.10
2018-08-07T02:45:30.806Z,56.29
2018-08-07T02:46:30.821Z,56.96
2018-08-07T02:47:30.858Z,57.06
2018-08-07T02:48:30.861Z,55.71
2018-08-07T02:49:30.880Z,55.23
2018-08-07T02:50:30.909Z,55.71
2018-08-07T02:51:30.914Z,55.42
2018-08-07T02:52:30.941Z,55.62
2018-08-07T02:53:31.184Z,55.23
2018-08-07T02:54:30.985Z,57.26
2018-08-07T02:55:31.002Z,56.68
2018-08-07T02:56:31.007Z,56.68
2018-08-07T02:57:31.028Z,55.42
2018-08-07T02:58:31.045Z,55.62
2018-08-07T02:59:31.065Z,55.42
2018-08-07T03:00:31.084Z,56.48
2018-08-07T03:01:31.150Z,55.90
2018-08-07T03:02:31.118Z,56.39
2018-08-07T03:03:31.140Z,56.39
2018-08-07T03:04:31.258Z,56.39
2018-08-07T03:05:31.188Z,57.71
2018-08-07T03:06:31.195Z,57.71
2018-08-07T03:07:31.212Z,57.90
2018-08-07T03:08:31.287Z,57.32
2018-08-07T03:09:31.249Z,56.84
2018-08-07T03:10:31.265Z,59.64
2018-08-07T03:11:31.287Z,58.58
2018-08-07T03:12:31.302Z,57.90
2018-08-07T03:13:31.320Z,59.25
2018-08-07T03:14:31.340Z,57.71
2018-08-07T03:15:31.363Z,57.71
2018-08-07T03:16:31.375Z,58.39
2018-08-07T03:17:31.393Z,57.04
2018-08-07T03:18:31.413Z,56.87
2018-08-07T03:19:31.432Z,57.23
2018-08-07T03:20:31.450Z,57.32
2018-08-07T03:21:31.469Z,56.65
2018-08-07T03:22:31.487Z,57.71
2018-08-07T03:23:31.510Z,57.23
2018-08-07T03:24:31.536Z,58.19
2018-08-07T03:25:31.545Z,57.90
2018-08-07T03:26:31.560Z,59.64
2018-08-07T03:27:31.577Z,58.68
2018-08-07T03:28:31.596Z,60.31
2018-08-07T03:29:31.613Z,59.64
2018-08-07T03:30:31.632Z,58.58
2018-08-07T03:31:31.652Z,58.58
2018-08-07T03:32:31.673Z,60.31
2018-08-07T03:33:31.695Z,59.06
2018-08-07T03:34:31.705Z,58.48
2018-08-07T03:35:31.724Z,58.58
2018-08-07T03:36:31.743Z,57.62
2018-08-07T03:37:31.763Z,57.81
2018-08-07T03:38:31.781Z,58.45
2018-08-07T03:39:31.999Z,58.65
2018-08-07T03:40:31.814Z,58.17
2018-08-07T03:41:31.832Z,58.45
2018-08-07T03:42:31.856Z,59.61
2018-08-07T03:43:31.872Z,59.71
2018-08-07T03:44:31.888Z,58.75
2018-08-07T03:45:31.908Z,58.75
2018-08-07T03:46:31.924Z,59.23
2018-08-07T03:47:31.942Z,58.94
2018-08-07T03:48:31.960Z,59.52
2018-08-07T03:49:31.995Z,59.71
2018-08-07T03:50:31.997Z,59.03
2018-08-07T03:51:32.027Z,60.58
2018-08-07T03:52:32.369Z,59.80
2018-08-07T03:53:32.060Z,59.68
2018-08-07T03:54:32.078Z,60.26
2018-08-07T03:55:32.092Z,60.74
2018-08-07T03:56:32.111Z,59.68
2018-08-07T03:57:32.124Z,59.68
2018-08-07T03:58:32.143Z,60.35
2018-08-07T03:59:32.166Z,61.03
2018-08-07T04:00:32.181Z,60.55
2018-08-07T04:01:32.216Z,61.41
2018-08-07T04:02:32.225Z,60.64
2018-08-07T04:03:32.233Z,62.28
2018-08-07T04:04:32.252Z,60.45
2018-08-07T04:05:32.271Z,61.41
2018-08-07T04:06:32.639Z,62.48
2018-08-07T04:07:32.383Z,61.51
2018-08-07T04:08:32.328Z,61.90
2018-08-07T04:09:32.341Z,61.13
2018-08-07T04:10:32.360Z,60.64
2018-08-07T04:11:32.443Z,60.83
2018-08-07T04:12:32.396Z,61.51
2018-08-07T04:13:32.412Z,60.19
2018-08-07T04:14:32.434Z,60.77
2018-08-07T04:15:32.450Z,60.96
2018-08-07T04:16:32.466Z,60.96
2018-08-07T04:17:32.484Z,60.48
2018-08-07T04:18:32.507Z,60.19
2018-08-07T04:19:32.530Z,60.48
2018-08-07T04:20:32.541Z,60.10
2018-08-07T04:21:32.571Z,59.03
2018-08-07T04:22:32.576Z,58.75
2018-08-07T04:23:32.596Z,58.55
2018-08-07T04:24:32.613Z,59.32
2018-08-07T04:25:32.630Z,59.10
2018-08-07T04:26:32.648Z,60.26
2018-08-07T04:27:32.683Z,60.83
2018-08-07T04:28:32.681Z,61.51
2018-08-07T04:29:32.707Z,60.64
2018-08-07T04:30:32.722Z,61.80
2018-08-07T04:31:32.734Z,60.74
2018-08-07T04:32:32.858Z,60.35
2018-08-07T04:33:32.780Z,59.68
2018-08-07T04:34:32.856Z,60.64
2018-08-07T04:35:32.811Z,60.83
2018-08-07T04:36:32.826Z,60.74
2018-08-07T04:37:32.859Z,60.45
2018-08-07T04:38:32.860Z,60.74
2018-08-07T04:39:32.883Z,60.93
2018-08-07T04:40:32.899Z,60.93
2018-08-07T04:41:32.915Z,60.74
2018-08-07T04:42:32.935Z,60.71
2018-08-07T04:43:32.953Z,62.28
2018-08-07T04:44:32.972Z,61.00
2018-08-07T04:45:32.990Z,60.83
2018-08-07T04:46:33.005Z,61.90
2018-08-07T04:47:33.026Z,61.61
2018-08-07T04:48:33.043Z,61.51
2018-08-07T04:49:33.062Z,62.48
2018-08-07T04:50:33.078Z,62.28
2018-08-07T04:51:33.097Z,61.61
2018-08-07T04:52:33.118Z,62.09
2018-08-07T04:53:33.130Z,61.80
2018-08-07T04:54:33.153Z,62.57
2018-08-07T04:55:33.169Z,61.51
2018-08-07T04:56:33.183Z,62.57
2018-08-07T04:57:33.302Z,61.61
2018-08-07T04:58:33.240Z,62.57
2018-08-07T04:59:33.234Z,62.09
2018-08-07T05:00:33.313Z,61.61
2018-08-07T05:01:33.269Z,61.64
2018-08-07T05:02:33.288Z,61.51
2018-08-07T05:03:33.303Z,62.70
2018-08-07T05:04:33.339Z,62.18
2018-08-07T05:05:33.344Z,61.61
2018-08-07T05:06:33.357Z,62.22
2018-08-07T05:07:33.375Z,62.12
2018-08-07T05:08:33.403Z,62.60
2018-08-07T05:09:33.415Z,60.48
2018-08-07T05:10:33.523Z,60.10
2018-08-07T05:11:33.447Z,60.28
2018-08-07T05:12:33.469Z,60.86
2018-08-07T05:13:33.489Z,60.38
2018-08-07T05:14:33.504Z,60.28
2018-08-07T05:15:33.520Z,61.44
2018-08-07T05:16:33.565Z,60.48
2018-08-07T05:17:33.557Z,60.77
2018-08-07T05:18:33.630Z,60.77
2018-08-07T05:19:33.623Z,60.71
2018-08-07T05:20:33.621Z,60.41
2018-08-07T05:21:33.629Z,61.77
2018-08-07T05:22:33.651Z,59.55
2018-08-07T05:23:33.664Z,59.83
2018-08-07T05:24:33.684Z,60.86
2018-08-07T05:25:33.699Z,61.28
2018-08-07T05:26:33.722Z,59.93
2018-08-07T05:27:33.738Z,60.13
2018-08-07T05:28:33.763Z,61.67
2018-08-07T05:29:33.781Z,60.61
2018-08-07T05:30:33.790Z,61.57
2018-08-07T05:31:33.863Z,60.61
2018-08-07T05:32:33.998Z,60.31
2018-08-07T05:33:33.846Z,60.80
2018-08-07T05:34:34.397Z,60.80
2018-08-07T05:35:34.525Z,61.19
2018-08-07T05:36:33.900Z,61.09
2018-08-07T05:37:33.916Z,60.41
2018-08-07T05:38:33.935Z,61.57
2018-08-07T05:39:33.957Z,60.51
2018-08-07T05:40:33.996Z,60.71
2018-08-07T05:41:33.990Z,60.51
2018-08-07T05:42:34.037Z,60.51
2018-08-07T05:43:34.028Z,60.99
2018-08-07T05:44:34.044Z,61.19
2018-08-07T05:45:34.087Z,61.38
2018-08-07T05:46:34.168Z,61.57
2018-08-07T05:47:34.462Z,61.19
2018-08-07T05:48:34.381Z,61.09
2018-08-07T05:49:34.404Z,60.73
2018-08-07T05:50:34.279Z,58.87
2018-08-07T05:51:34.252Z,58.77
2018-08-07T05:52:34.190Z,58.29
2018-08-07T05:53:34.210Z,59.25
2018-08-07T05:54:34.230Z,59.55
2018-08-07T05:55:34.245Z,59.64
2018-08-07T05:56:34.273Z,57.90
2018-08-07T05:57:34.282Z,57.84
2018-08-07T05:58:34.304Z,57.64
2018-08-07T05:59:34.327Z,57.06
2018-08-07T06:00:34.335Z,57.93
2018-08-07T06:01:34.355Z,58.51
2018-08-07T06:02:34.380Z,59.19
2018-08-07T06:03:34.394Z,57.87
2018-08-07T06:04:34.413Z,57.67
2018-08-07T06:05:34.429Z,57.57
2018-08-07T06:06:34.447Z,58.64
2018-08-07T06:07:34.465Z,58.73
2018-08-07T06:08:34.482Z,59.31
2018-08-07T06:09:34.500Z,59.02
2018-08-07T06:10:34.522Z,58.54
2018-08-07T06:11:35.479Z,59.22
2018-08-07T06:12:35.056Z,59.12
2018-08-07T06:13:35.930Z,60.86
2018-08-07T06:14:34.643Z,64.53
2018-08-07T06:15:34.618Z,62.31
2018-08-07T06:16:34.631Z,60.67
2018-08-07T06:17:34.663Z,60.18
2018-08-07T06:18:34.670Z,59.31
2018-08-07T06:19:34.686Z,59.70
2018-08-07T06:20:34.706Z,62.02
2018-08-07T06:21:34.773Z,59.60
2018-08-07T06:22:34.743Z,59.89
2018-08-07T06:23:34.759Z,58.93
2018-08-07T06:24:34.777Z,58.18
2018-08-07T06:25:34.855Z,59.92
2018-08-07T06:26:34.814Z,59.44
2018-08-07T06:27:34.834Z,58.28
2018-08-07T06:28:34.883Z,59.53
2018-08-07T06:29:34.893Z,58.67
2018-08-07T06:30:34.889Z,60.02
2018-08-07T06:31:34.954Z,57.89
2018-08-07T06:32:34.927Z,59.25
2018-08-07T06:33:34.944Z,60.24
2018-08-07T06:34:34.963Z,60.02
2018-08-07T06:35:34.982Z,57.70
2018-08-07T06:36:35.000Z,57.79
2018-08-07T06:37:35.020Z,57.92
2018-08-07T06:38:35.041Z,56.86
2018-08-07T06:39:35.058Z,57.63
2018-08-07T06:40:35.075Z,58.47
2018-08-07T06:41:35.092Z,58.98
2018-08-07T06:42:35.111Z,59.05
2018-08-07T06:43:35.131Z,59.56
2018-08-07T06:44:35.152Z,58.50
2018-08-07T06:45:35.206Z,58.60
2018-08-07T06:46:36.742Z,59.08
2018-08-07T06:47:35.207Z,57.82
2018-08-07T06:48:35.225Z,57.54
2018-08-07T06:49:35.316Z,57.54
2018-08-07T06:50:35.260Z,58.44
2018-08-07T06:51:35.324Z,57.73
2018-08-07T06:52:35.296Z,56.70
2018-08-07T06:53:35.316Z,57.08
2018-08-07T06:54:35.335Z,55.73
2018-08-07T06:55:35.356Z,55.82
2018-08-07T06:56:35.372Z,55.92
2018-08-07T06:57:35.391Z,56.04
2018-08-07T06:58:35.411Z,56.24
2018-08-07T06:59:35.433Z,56.52
2018-08-07T07:00:35.453Z,56.24
2018-08-07T07:01:35.494Z,56.52
2018-08-07T07:02:35.546Z,56.43
2018-08-07T07:03:35.516Z,55.46
2018-08-07T07:04:35.533Z,55.58
2018-08-07T07:05:35.543Z,55.30
2018-08-07T07:06:35.562Z,56.07
2018-08-07T07:07:35.581Z,55.40
2018-08-07T07:08:35.598Z,55.40
2018-08-07T07:09:35.697Z,55.40
2018-08-07T07:10:35.642Z,55.20
2018-08-07T07:11:35.657Z,55.49
2018-08-07T07:12:35.690Z,55.04
2018-08-07T07:13:35.695Z,54.26
2018-08-07T07:14:35.711Z,54.74
2018-08-07T07:15:35.958Z,53.97
2018-08-07T07:16:35.753Z,54.74
2018-08-07T07:17:35.881Z,54.94
2018-08-07T07:18:35.952Z,54.38
2018-08-07T07:19:35.809Z,54.38
2018-08-07T07:20:35.829Z,54.48
2018-08-07T07:21:35.847Z,54.48
2018-08-07T07:22:35.865Z,53.89
2018-08-07T07:23:35.885Z,53.22
2018-08-07T07:24:35.904Z,53.12
2018-08-07T07:25:35.932Z,53.41
2018-08-07T07:26:35.999Z,53.02
2018-08-07T07:27:36.135Z,52.15
2018-08-07T07:28:35.986Z,51.76
2018-08-07T07:29:36.005Z,51.31
2018-08-07T07:30:36.020Z,51.59
2018-08-07T07:31:36.040Z,52.18
2018-08-07T07:32:36.060Z,51.79
2018-08-07T07:33:36.079Z,51.98
2018-08-07T07:34:36.184Z,51.53
2018-08-07T07:35:36.120Z,50.92
2018-08-07T07:36:36.144Z,51.23
2018-08-07T07:37:36.157Z,50.84
2018-08-07T07:38:36.175Z,50.94
2018-08-07T07:39:36.201Z,50.84
2018-08-07T07:40:36.221Z,50.56
2018-08-07T07:41:36.235Z,50.16
2018-08-07T07:42:36.258Z,50.77
2018-08-07T07:43:36.275Z,50.68
2018-08-07T07:44:36.293Z,51.16
2018-08-07T07:45:36.315Z,50.48
2018-08-07T07:46:36.341Z,50.87
2018-08-07T07:47:36.359Z,51.16
2018-08-07T07:48:36.375Z,50.19
2018-08-07T07:49:36.394Z,51.16
2018-08-07T07:50:36.413Z,50.19
2018-08-07T07:51:36.445Z,51.06
2018-08-07T07:52:36.679Z,51.75
2018-08-07T07:53:36.470Z,50.41
2018-08-07T07:54:36.496Z,50.31
2018-08-07T07:55:36.506Z,50.80
2018-08-07T07:56:37.067Z,51.97
2018-08-07T07:57:36.545Z,50.02
2018-08-07T07:58:36.568Z,49.54
2018-08-07T07:59:36.822Z,49.82
2018-08-07T08:00:36.605Z,50.70
2018-08-07T08:01:36.627Z,50.51
2018-08-07T08:02:36.657Z,50.53
2018-08-07T08:03:36.668Z,50.14
2018-08-07T08:04:36.684Z,50.63
2018-08-07T08:05:36.708Z,50.43
2018-08-07T08:06:36.726Z,49.27
2018-08-07T08:07:36.758Z,50.14
2018-08-07T08:08:36.773Z,51.01
2018-08-07T08:09:36.792Z,50.24
2018-08-07T08:10:36.811Z,49.76
2018-08-07T08:11:36.825Z,50.16
2018-08-07T08:12:36.853Z,49.76
2018-08-07T08:13:36.877Z,49.27
2018-08-07T08:14:36.885Z,48.78
2018-08-07T08:15:36.906Z,49.10
2018-08-07T08:16:36.940Z,49.00
2018-08-07T08:17:36.953Z,48.90
2018-08-07T08:18:36.965Z,48.80
2018-08-07T08:19:36.990Z,49.39
2018-08-07T08:20:37.206Z,49.29
2018-08-07T08:21:37.046Z,49.49
2018-08-07T08:22:38.065Z,49.12
2018-08-07T08:23:37.072Z,49.12
2018-08-07T08:24:37.108Z,48.93
2018-08-07T08:25:37.111Z,48.34
2018-08-07T08:26:37.128Z,48.83
2018-08-07T08:27:37.154Z,48.25
2018-08-07T08:28:37.172Z,46.91
2018-08-07T08:29:37.261Z,47.30
2018-08-07T08:30:37.213Z,46.71
2018-08-07T08:31:37.235Z,47.30
2018-08-07T08:32:37.256Z,47.20
2018-08-07T08:33:37.282Z,47.00
2018-08-07T08:34:37.296Z,46.61
2018-08-07T08:35:37.357Z,48.07
2018-08-07T08:36:37.340Z,47.30
2018-08-07T08:37:37.353Z,46.91
2018-08-07T08:38:37.376Z,47.32
2018-08-07T08:39:37.393Z,46.83
2018-08-07T08:40:37.413Z,46.64
2018-08-07T08:41:37.433Z,46.44
2018-08-07T08:42:37.461Z,47.32
2018-08-07T08:43:37.487Z,47.42
2018-08-07T08:44:37.497Z,46.93
2018-08-07T08:45:37.526Z,46.64
2018-08-07T08:46:37.536Z,46.44
2018-08-07T08:47:37.558Z,46.95
2018-08-07T08:48:37.631Z,47.05
2018-08-07T08:49:37.599Z,46.76
2018-08-07T08:50:37.619Z,46.47
2018-08-07T08:51:37.642Z,45.98
2018-08-07T08:52:37.661Z,46.08
2018-08-07T08:53:37.682Z,45.68
2018-08-07T08:54:37.701Z,45.81
2018-08-07T08:55:37.723Z,44.64
2018-08-07T08:56:37.744Z,44.83
2018-08-07T08:57:37.769Z,45.32
2018-08-07T08:58:37.788Z,45.22
2018-08-07T08:59:37.835Z,45.90
2018-08-07T09:00:37.826Z,45.51
2018-08-07T09:01:37.851Z,45.32
2018-08-07T09:02:38.510Z,45.03
2018-08-07T09:03:38.053Z,44.83
2018-08-07T09:04:38.689Z,44.83
2018-08-07T09:05:37.936Z,44.85
2018-08-07T09:06:37.971Z,44.27
2018-08-07T09:07:38.036Z,44.07
2018-08-07T09:08:38.136Z,43.99
2018-08-07T09:09:38.017Z,43.80
2018-08-07T09:10:38.180Z,42.93
2018-08-07T09:11:38.080Z,42.63
2018-08-07T09:12:38.083Z,41.87
2018-08-07T09:13:38.099Z,42.26
2018-08-07T09:14:38.120Z,41.87
2018-08-07T09:15:38.331Z,41.48
2018-08-07T09:16:38.167Z,40.99
2018-08-07T09:17:38.186Z,41.48
2018-08-07T09:18:38.216Z,41.58
2018-08-07T09:19:38.339Z,41.38
2018-08-07T09:20:38.251Z,41.77
2018-08-07T09:21:38.264Z,42.26
2018-08-07T09:22:38.285Z,42.46
2018-08-07T09:23:38.409Z,41.38
2018-08-07T09:24:38.453Z,41.58
2018-08-07T09:25:38.552Z,40.60
2018-08-07T09:26:38.384Z,41.99
2018-08-07T09:27:38.398Z,41.60
2018-08-07T09:28:38.420Z,41.41
2018-08-07T09:29:38.435Z,40.33
2018-08-07T09:30:38.470Z,40.53
2018-08-07T09:31:38.485Z,40.43
2018-08-07T09:32:38.509Z,40.55
2018-08-07T09:33:38.518Z,40.45
2018-08-07T09:34:38.562Z,40.23
2018-08-07T09:35:38.565Z,40.55
2018-08-07T09:36:38.583Z,40.84
2018-08-07T09:37:38.605Z,40.94
2018-08-07T09:38:38.625Z,40.82
2018-08-07T09:39:40.890Z,40.55
2018-08-07T09:40:38.990Z,41.03
2018-08-07T09:41:38.694Z,40.84
2018-08-07T09:42:38.717Z,39.96
2018-08-07T09:43:38.743Z,40.25
2018-08-07T09:44:38.756Z,40.16
2018-08-07T09:45:38.792Z,41.13
2018-08-07T09:46:38.853Z,41.03
2018-08-07T09:47:38.826Z,40.74
2018-08-07T09:48:38.840Z,40.17
2018-08-07T09:49:38.881Z,40.08
2018-08-07T09:50:38.882Z,39.49
2018-08-07T09:51:38.904Z,39.39
2018-08-07T09:52:38.928Z,39.51
2018-08-07T09:53:38.953Z,39.29
2018-08-07T09:54:39.188Z,38.61
2018-08-07T09:55:39.003Z,39.51
2018-08-07T09:56:39.012Z,39.22
2018-08-07T09:57:39.042Z,39.51
2018-08-07T09:58:39.168Z,38.53
2018-08-07T09:59:39.079Z,38.45
2018-08-07T10:00:39.280Z,39.14
2018-08-07T10:01:39.120Z,38.75
2018-08-07T10:02:39.142Z,38.75
2018-08-07T10:03:39.166Z,39.04
2018-08-07T10:04:39.264Z,38.65
2018-08-07T10:06:39.290Z,37.67
2018-08-07T10:07:39.735Z,37.57
2018-08-07T10:08:39.271Z,37.88
2018-08-07T10:09:39.292Z,37.87
2018-08-07T10:10:39.309Z,37.27
2018-08-07T10:11:39.834Z,37.67
2018-08-07T10:12:39.993Z,37.47
2018-08-07T10:13:39.401Z,38.35
2018-08-07T10:14:40.569Z,37.87
2018-08-07T10:15:39.420Z,37.87
2018-08-07T10:16:39.441Z,37.69
2018-08-07T10:17:39.468Z,38.67
2018-08-07T10:18:39.584Z,37.59
2018-08-07T10:19:39.521Z,37.29
2018-08-07T10:20:39.528Z,37.10
2018-08-07T10:21:39.547Z,36.82
2018-08-07T10:22:39.879Z,37.41
2018-08-07T10:23:39.593Z,37.12
2018-08-07T10:24:39.623Z,36.63
2018-08-07T10:25:39.636Z,37.31
2018-08-07T10:26:39.658Z,37.31
2018-08-07T10:27:39.680Z,36.45
2018-08-07T10:28:39.834Z,36.74
2018-08-07T10:29:39.729Z,36.06
2018-08-07T10:30:39.896Z,34.88
2018-08-07T10:31:39.783Z,35.27
2018-08-07T10:32:39.817Z,34.20
2018-08-07T10:33:39.827Z,34.51
2018-08-07T10:34:39.832Z,35.08
2018-08-07T10:35:39.856Z,34.61
2018-08-07T10:36:39.890Z,35.00
2018-08-07T10:37:39.898Z,34.11
2018-08-07T10:38:39.922Z,34.31
2018-08-07T10:39:39.942Z,33.43
2018-08-07T10:40:40.065Z,33.23
2018-08-07T10:41:39.986Z,34.21
2018-08-07T10:42:40.016Z,32.15
2018-08-07T10:43:40.189Z,32.84
2018-08-07T10:44:40.053Z,32.25
2018-08-07T10:45:40.076Z,32.25
2018-08-07T10:46:40.096Z,32.35
2018-08-07T10:47:40.149Z,31.96
2018-08-07T10:48:40.140Z,32.54
2018-08-07T10:49:40.164Z,31.67
2018-08-07T10:50:40.221Z,30.08
2018-08-07T10:51:40.208Z,30.78
2018-08-07T10:52:40.256Z,31.47
2018-08-07T10:53:40.310Z,31.37
2018-08-07T10:54:40.273Z,31.57
2018-08-07T10:55:40.303Z,31.87
2018-08-07T10:56:40.371Z,28.82
2018-08-07T10:57:40.343Z,27.85
2018-08-07T10:58:40.361Z,27.75
2018-08-07T10:59:40.388Z,29.22
2018-08-07T11:00:40.416Z,29.22
2018-08-07T11:01:40.430Z,27.66
2018-08-07T11:02:40.450Z,27.75
2018-08-07T11:03:40.476Z,28.45
2018-08-07T11:04:40.501Z,28.75
2018-08-07T11:05:40.568Z,27.57
2018-08-07T11:06:40.545Z,27.47
2018-08-07T11:07:40.567Z,27.57
2018-08-07T11:08:40.775Z,27.67
2018-08-07T11:09:40.616Z,27.97
2018-08-07T11:10:40.631Z,29.64
2018-08-07T11:11:40.653Z,28.67
2018-08-07T11:12:40.677Z,28.47
2018-08-07T11:13:40.718Z,28.67
2018-08-07T11:14:41.547Z,28.47
2018-08-07T11:15:40.816Z,29.75
2018-08-07T11:16:40.770Z,29.14
2018-08-07T11:17:40.841Z,28.86
2018-08-07T11:18:40.809Z,28.17
2018-08-07T11:19:40.833Z,29.75
2018-08-07T11:20:40.906Z,29.35
2018-08-07T11:21:41.892Z,30.14
2018-08-07T11:22:40.995Z,28.27
2018-08-07T11:23:40.922Z,28.37
2018-08-07T11:24:40.997Z,29.45
2018-08-07T11:25:40.977Z,29.06
2018-08-07T11:26:40.991Z,27.39
2018-08-07T11:27:41.016Z,26.61
2018-08-07T11:28:41.056Z,28.67
2018-08-07T11:29:41.090Z,28.37
2018-08-07T11:30:41.084Z,28.67
2018-08-07T11:31:41.110Z,28.27
2018-08-07T11:32:41.124Z,27.60
2018-08-07T11:33:41.169Z,27.78
2018-08-07T11:34:41.167Z,28.49
2018-08-07T11:35:41.197Z,27.80
2018-08-07T11:36:41.212Z,28.29
2018-08-07T11:37:41.238Z,29.48
2018-08-07T11:38:41.257Z,25.65
2018-08-07T11:39:41.281Z,25.55
2018-08-07T11:40:41.358Z,25.35
2018-08-07T11:41:41.326Z,26.53
2018-08-07T11:42:41.348Z,28.31
2018-08-07T11:43:41.374Z,27.23
2018-08-07T11:44:41.423Z,25.27
2018-08-07T11:45:41.416Z,25.27
2018-08-07T11:46:41.449Z,26.25
2018-08-07T11:47:41.463Z,26.45
2018-08-07T11:48:41.491Z,26.75
2018-08-07T11:49:41.507Z,26.26
2018-08-07T11:50:41.534Z,25.48
2018-08-07T11:51:41.552Z,25.77
2018-08-07T11:52:41.582Z,24.88
2018-08-07T11:53:41.604Z,24.70
2018-08-07T11:54:41.623Z,24.51
2018-08-07T11:55:41.646Z,24.80
2018-08-07T11:56:41.667Z,23.82
2018-08-07T11:57:41.692Z,24.60
2018-08-07T11:58:41.715Z,24.88
2018-08-07T11:59:41.737Z,24.80
2018-08-07T12:00:41.761Z,24.70
2018-08-07T12:01:41.887Z,24.51
2018-08-07T12:02:41.919Z,25.49
2018-08-07T12:03:41.975Z,23.82
2018-08-07T12:04:41.889Z,24.81
2018-08-07T12:05:41.868Z,23.73
2018-08-07T12:06:42.098Z,25.40
2018-08-07T12:07:41.929Z,26.87
2018-08-07T12:08:41.942Z,27.06
2018-08-07T12:09:41.961Z,25.78
2018-08-07T12:10:42.063Z,25.39
2018-08-07T12:11:42.009Z,26.26
2018-08-07T12:12:42.034Z,26.57
2018-08-07T12:13:42.053Z,25.77
2018-08-07T12:14:42.094Z,26.56
2018-08-07T12:15:42.099Z,25.49
2018-08-07T12:16:42.801Z,26.08
2018-08-07T12:17:42.145Z,26.77
2018-08-07T12:18:42.176Z,26.75
2018-08-07T12:19:42.193Z,26.85
2018-08-07T12:20:42.217Z,25.49
2018-08-07T12:21:42.246Z,26.75
2018-08-07T12:22:42.265Z,25.77
2018-08-07T12:23:42.287Z,27.84
2018-08-07T12:24:42.332Z,24.88
2018-08-07T12:25:42.338Z,24.90
2018-08-07T12:26:42.370Z,24.21
2018-08-07T12:27:42.407Z,26.67
2018-08-07T12:28:42.409Z,27.27
2018-08-07T12:29:42.507Z,27.47
2018-08-07T12:30:42.469Z,25.40
2018-08-07T12:31:42.584Z,24.91
2018-08-07T12:32:42.496Z,24.02
2018-08-07T12:33:42.516Z,23.43
2018-08-07T12:34:42.542Z,23.16
2018-08-07T12:36:42.585Z,23.95
2018-08-07T12:37:42.608Z,24.74
2018-08-07T12:38:42.633Z,24.84
2018-08-07T12:39:42.667Z,23.25
2018-08-07T12:40:42.682Z,25.12
2018-08-07T12:41:42.705Z,23.05
2018-08-07T12:42:42.726Z,24.04
2018-08-07T12:43:42.748Z,23.16
2018-08-07T12:44:42.778Z,24.05
2018-08-07T12:45:42.807Z,23.96
2018-08-07T12:46:42.843Z,23.66
2018-08-07T12:47:42.843Z,23.57
2018-08-07T12:48:42.905Z,22.30
2018-08-07T12:49:42.902Z,21.80
2018-08-07T12:50:42.931Z,22.69
2018-08-07T12:51:42.952Z,21.42
2018-08-07T12:52:42.959Z,23.29
2018-08-07T12:53:42.985Z,22.78
2018-08-07T12:54:43.008Z,22.30
2018-08-07T12:55:43.033Z,21.90
2018-08-07T12:56:43.055Z,22.89
2018-08-07T12:57:43.079Z,23.08
2018-08-07T12:58:43.124Z,25.84
2018-08-07T12:59:43.127Z,24.07
2018-08-07T13:00:43.154Z,23.48
2018-08-07T13:01:43.837Z,25.14
2018-08-07T13:02:43.202Z,24.55
2018-08-07T13:03:43.235Z,24.34
2018-08-07T13:04:43.257Z,23.75